PWSweather.com
Personal Weather Stations
Station Observations

OlomoucCZ

Lat: 49.5936202181, Lon: 17.2276005149

Elevation: 752

Station Type: Davis Vantage Pro 2 Activ

http://infopocasi-olomouc.cz

High Low Average
Temperature 34.1°F1.2°C 31.7°F-0.2°C 33.3°F0.7°C
Dew Point 30.9°F-0.6°C 27.3°F-2.6°C 28.7°F-1.8°C
Winds 12.7 mph 20.4 kmh 1.2 mph 1.9 kmh 6.0 mph SSE9.7 kmh SSE
Wind Gusts 17.3 mph27.8 kmh 3.5 mph5.6 kmh 9.0 mph14.5 kmh
Humidity 89% 78% 83%
Pressure 30.39 in1029.1 mb 30.37 in1028.4 mb -
Precipitation 0.00 in0.0 mm - -
Hour Temp Dew Point Humidity Winds Wind Gusts Pressure Precip Precip Rate Daily Precip Total
12:00 AM 33.8°F1.0°C 30.9°F-0.6°C 89% 10.4 mph NNE16.7 kmh NNE 13.8 mph22.2 kmh 30.39 in1029.1 mb - 0.00 in0.0 mm 0.00 in0.0 mm
12:30 AM 33.5°F0.8°C 30.6°F-0.8°C 89% 12.7 mph N20.4 kmh N 17.3 mph27.8 kmh 30.39 in1029.1 mb - 0.00 in0.0 mm 0.00 in0.0 mm
01:00 AM 33.5°F0.8°C 30.6°F-0.8°C 89% 6.9 mph N11.1 kmh N 10.4 mph16.7 kmh 30.39 in1029.1 mb - 0.00 in0.0 mm 0.00 in0.0 mm
01:30 AM 33.4°F0.8°C 30.5°F-0.8°C 89% 12.7 mph N20.4 kmh N 16.1 mph25.9 kmh 30.39 in1029.1 mb - 0.00 in0.0 mm 0.00 in0.0 mm
02:00 AM 33.4°F0.8°C 30.2°F-1.0°C 88% 9.2 mph N14.8 kmh N 11.5 mph18.5 kmh 30.39 in1029.1 mb - 0.00 in0.0 mm 0.00 in0.0 mm
02:30 AM 33.5°F0.8°C 30.3°F-0.9°C 88% 5.8 mph NNW9.3 kmh NNW 12.7 mph20.4 kmh 30.39 in1029.1 mb - 0.00 in0.0 mm 0.00 in0.0 mm
03:00 AM 33.7°F0.9°C 30.0°F-1.1°C 86% 9.2 mph N14.8 kmh N 10.4 mph16.7 kmh 30.38 in1028.8 mb - 0.00 in0.0 mm 0.00 in0.0 mm
03:30 AM 33.7°F0.9°C 30.0°F-1.1°C 86% 6.9 mph N11.1 kmh N 11.5 mph18.5 kmh 30.38 in1028.8 mb - 0.00 in0.0 mm 0.00 in0.0 mm
04:00 AM 33.7°F0.9°C 29.4°F-1.4°C 84% 5.8 mph N9.3 kmh N 8.1 mph13.0 kmh 30.38 in1028.8 mb - 0.00 in0.0 mm 0.00 in0.0 mm
04:30 AM 33.6°F0.9°C 28.7°F-1.8°C 82% 6.9 mph N11.1 kmh N 17.3 mph27.8 kmh 30.38 in1028.8 mb - 0.00 in0.0 mm 0.00 in0.0 mm
05:00 AM 33.5°F0.8°C 28.3°F-2.1°C 81% 11.5 mph N18.5 kmh N 16.1 mph25.9 kmh 30.37 in1028.4 mb - 0.00 in0.0 mm 0.00 in0.0 mm
05:30 AM 33.5°F0.8°C 28.0°F-2.2°C 80% 6.9 mph N11.1 kmh N 17.3 mph27.8 kmh 30.37 in1028.4 mb - 0.00 in0.0 mm 0.00 in0.0 mm
06:00 AM 33.3°F0.7°C 27.8°F-2.3°C 80% 10.4 mph N16.7 kmh N 13.8 mph22.2 kmh 30.38 in1028.8 mb - 0.00 in0.0 mm 0.00 in0.0 mm
06:30 AM 33.1°F0.6°C 27.9°F-2.3°C 81% 6.9 mph NNE11.1 kmh NNE 8.1 mph13.0 kmh 30.38 in1028.8 mb - 0.00 in0.0 mm 0.00 in0.0 mm
07:00 AM 33.1°F0.6°C 27.3°F-2.6°C 79% 10.4 mph N16.7 kmh N 11.5 mph18.5 kmh 30.38 in1028.8 mb - 0.00 in0.0 mm 0.00 in0.0 mm
07:30 AM 33.1°F0.6°C 27.3°F-2.6°C 79% 4.6 mph NNW7.4 kmh NNW 5.8 mph9.3 kmh 30.38 in1028.8 mb - 0.00 in0.0 mm 0.00 in0.0 mm
08:00 AM 33.1°F0.6°C 27.3°F-2.6°C 79% 11.5 mph N18.5 kmh N 11.5 mph18.5 kmh 30.38 in1028.8 mb - 0.00 in0.0 mm 0.00 in0.0 mm
08:30 AM 33.2°F0.7°C 27.4°F-2.6°C 79% 8.1 mph N13.0 kmh N 11.5 mph18.5 kmh 30.38 in1028.8 mb - 0.00 in0.0 mm 0.00 in0.0 mm
09:00 AM 33.3°F0.7°C 27.5°F-2.5°C 79% 4.6 mph N7.4 kmh N 9.2 mph14.8 kmh 30.38 in1028.8 mb - 0.00 in0.0 mm 0.00 in0.0 mm
09:30 AM 33.4°F0.8°C 27.6°F-2.4°C 79% 4.6 mph N7.4 kmh N 11.5 mph18.5 kmh 30.39 in1029.1 mb - 0.00 in0.0 mm 0.00 in0.0 mm
10:00 AM 33.7°F0.9°C 28.2°F-2.1°C 80% 9.2 mph N14.8 kmh N 13.8 mph22.2 kmh 30.39 in1029.1 mb - 0.00 in0.0 mm 0.00 in0.0 mm
10:30 AM 33.9°F1.1°C 28.1°F-2.2°C 79% 3.5 mph N5.6 kmh N 4.6 mph7.4 kmh 30.39 in1029.1 mb - 0.00 in0.0 mm 0.00 in0.0 mm
11:00 AM 33.9°F1.1°C 27.8°F-2.3°C 78% 2.3 mph NNE3.7 kmh NNE 9.2 mph14.8 kmh 30.39 in1029.1 mb - 0.00 in0.0 mm 0.00 in0.0 mm
11:30 AM 33.9°F1.1°C 28.1°F-2.2°C 79% 4.6 mph NNE7.4 kmh NNE 10.4 mph16.7 kmh 30.39 in1029.1 mb - 0.00 in0.0 mm 0.00 in0.0 mm
12:00 PM 33.9°F1.1°C 28.4°F-2.0°C 80% 5.8 mph NNE9.3 kmh NNE 11.5 mph18.5 kmh 30.38 in1028.8 mb - 0.00 in0.0 mm 0.00 in0.0 mm
12:30 PM 33.7°F0.9°C 28.2°F-2.1°C 80% 9.2 mph NE14.8 kmh NE 10.4 mph16.7 kmh 30.37 in1028.4 mb - 0.00 in0.0 mm 0.00 in0.0 mm
01:00 PM 34.1°F1.2°C 28.6°F-1.9°C 80% 5.8 mph N9.3 kmh N 11.5 mph18.5 kmh 30.37 in1028.4 mb - 0.00 in0.0 mm 0.00 in0.0 mm
01:30 PM 33.9°F1.1°C 28.7°F-1.8°C 81% 4.6 mph NE7.4 kmh NE 3.5 mph5.6 kmh 30.37 in1028.4 mb - 0.00 in0.0 mm 0.00 in0.0 mm
02:00 PM 33.7°F0.9°C 28.8°F-1.8°C 82% 4.6 mph NW7.4 kmh NW 4.6 mph7.4 kmh 30.37 in1028.4 mb - 0.00 in0.0 mm 0.00 in0.0 mm
02:30 PM 33.5°F0.8°C 28.6°F-1.9°C 82% 6.9 mph NE11.1 kmh NE 9.2 mph14.8 kmh 30.37 in1028.4 mb - 0.00 in0.0 mm 0.00 in0.0 mm
03:00 PM 33.6°F0.9°C 29.0°F-1.7°C 83% 4.6 mph N7.4 kmh N 6.9 mph11.1 kmh 30.37 in1028.4 mb - 0.00 in0.0 mm 0.00 in0.0 mm
03:30 PM 33.5°F0.8°C 28.9°F-1.7°C 83% 5.8 mph NE9.3 kmh NE 10.4 mph16.7 kmh 30.37 in1028.4 mb - 0.00 in0.0 mm 0.00 in0.0 mm
04:00 PM 33.4°F0.8°C 29.1°F-1.6°C 84% 3.5 mph NNE5.6 kmh NNE 6.9 mph11.1 kmh 30.37 in1028.4 mb - 0.00 in0.0 mm 0.00 in0.0 mm
04:30 PM 33.4°F0.8°C 29.1°F-1.6°C 84% 4.6 mph N7.4 kmh N 8.1 mph13.0 kmh 30.38 in1028.8 mb - 0.00 in0.0 mm 0.00 in0.0 mm
05:00 PM 33.6°F0.9°C 29.2°F-1.6°C 84% 4.6 mph N7.4 kmh N 8.1 mph13.0 kmh 30.38 in1028.8 mb - 0.00 in0.0 mm 0.00 in0.0 mm
05:30 PM 33.6°F0.9°C 29.3°F-1.5°C 84% 3.5 mph N5.6 kmh N 3.5 mph5.6 kmh 30.38 in1028.8 mb - 0.00 in0.0 mm 0.00 in0.0 mm
06:00 PM 33.6°F0.9°C 29.3°F-1.5°C 84% 5.8 mph NE9.3 kmh NE 5.8 mph9.3 kmh 30.38 in1028.8 mb - 0.00 in0.0 mm 0.00 in0.0 mm
06:30 PM 32.7°F0.4°C 29.5°F-1.4°C 88% 2.3 mph NE3.7 kmh NE 3.5 mph5.6 kmh 30.38 in1028.8 mb - 0.00 in0.0 mm 0.00 in0.0 mm
07:00 PM 32.9°F0.5°C 29.2°F-1.6°C 86% 3.5 mph NNW5.6 kmh NNW 3.5 mph5.6 kmh 30.38 in1028.8 mb - 0.00 in0.0 mm 0.00 in0.0 mm
07:30 PM 32.8°F0.4°C 29.1°F-1.6°C 86% 3.5 mph N5.6 kmh N 3.5 mph5.6 kmh 30.39 in1029.1 mb - 0.00 in0.0 mm 0.00 in0.0 mm
08:00 PM 32.5°F0.3°C 28.8°F-1.8°C 86% 2.3 mph N3.7 kmh N 3.5 mph5.6 kmh 30.39 in1029.1 mb - 0.00 in0.0 mm 0.00 in0.0 mm
08:30 PM 32.5°F0.3°C 28.5°F-1.9°C 85% 3.5 mph N5.6 kmh N 4.6 mph7.4 kmh 30.39 in1029.1 mb - 0.00 in0.0 mm 0.00 in0.0 mm
09:00 PM 32.4°F0.2°C 28.4°F-2.0°C 85% 2.3 mph NW3.7 kmh NW 4.6 mph7.4 kmh 30.39 in1029.1 mb - 0.00 in0.0 mm 0.00 in0.0 mm
09:30 PM 32.1°F0.1°C 28.4°F-2.0°C 86% 4.6 mph N7.4 kmh N 4.6 mph7.4 kmh 30.39 in1029.1 mb - 0.00 in0.0 mm 0.00 in0.0 mm
10:00 PM 32.2°F0.1°C 28.2°F-2.1°C 85% 2.3 mph N3.7 kmh N 3.5 mph5.6 kmh 30.39 in1029.1 mb - 0.00 in0.0 mm 0.00 in0.0 mm
10:30 PM 32.2°F0.1°C 28.2°F-2.1°C 85% 3.5 mph N5.6 kmh N 3.5 mph5.6 kmh 30.39 in1029.1 mb - 0.00 in0.0 mm 0.00 in0.0 mm
11:00 PM 32.4°F0.2°C 28.1°F-2.2°C 84% 2.3 mph N3.7 kmh N 3.5 mph5.6 kmh 30.39 in1029.1 mb - 0.00 in0.0 mm 0.00 in0.0 mm
11:30 PM 31.7°F-0.2°C 27.7°F-2.4°C 85% 1.2 mph N1.9 kmh N 3.5 mph5.6 kmh 30.38 in1028.8 mb - 0.00 in0.0 mm 0.00 in0.0 mm